Brunswick Golden Isles Airport Brunswick US
ICAO: KBQK
IATA: BQK
Category: Medium
Scheduled Services: Yes

Elevation: 26 ft
TransAlt. 18000 ft.

Airport Communications:
AWOS 3:124.175
CLNC DEL:126.75
JACKSONVILLE CNTR:126.75
MACON RDO:122.2
CTAF/UNICOM:122.8

KBQK Zoom In..

If you have problems with the map follow the link
https://www.worldairports.se/pages/airport.php?
ICAO=KBQK

Runways:

(A) RW 07 length 8001 ft width 150 ft
ILS 108.50 / hdg 69

(B) RW 25 length 8001 ft width 150 ft
---- / hdg 249

Location; KBQK
Day. 13 / Time. 13.55 Zulu
* Altimeter: 30.04
* Temperature: 12° c. 53.6°f.
* Wind from: 020° Speed 04 kn.
Dewpoint: 12° c.
Visibility: 3 m.
Clouds: Overcast 400 ft.
Conditions: Light Rain.Conditions: Mist.

KBQK 131355Z AUTO 02004KT 3 1/2SM -RA BR OVC004 12/12 A3004 RMK AO2 LTG DSNT E P0028 T01240121


Wind From 020°
Speed 04 kn.

 
 
jpsmedia worldairports.se 2019   terms of use